Time;durP1;ratioP1;P1;durP2;ratioP2;P2;SDS_P1;SDS_P2;PMS_P1;PMS_P2;Temp;Humidity;BMP_temperature;BMP_pressure;BME280_temperature;BME280_humidity;BME280_pressure;Samples;Min_cycle;Max_cycle;Signal;HPM_P1;HPM_P2
2021/04/11 00:00:24;;;;;;;12.63;12.30;;;;;;;;;;5026225;28;20033;-59
2021/04/11 00:02:50;;;;;;;9.68;9.57;;;;;;;;;;5031294;28;20437;-59
2021/04/11 00:05:18;;;;;;;9.02;8.80;;;;;;;;;;5028920;28;20048;-57
2021/04/11 00:07:45;;;;;;;6.43;6.22;;;;;;;;;;5030369;28;20125;-60
2021/04/11 00:10:16;;;;;;;5.43;5.32;;;;;;;;;;5023730;28;20038;-60
2021/04/11 00:12:42;;;;;;;5.28;5.07;;;;;;;;;;5024755;28;20073;-59
2021/04/11 00:15:10;;;;;;;5.93;5.47;;;;;;;;;;5033092;28;20398;-59
2021/04/11 00:17:36;;;;;;;5.00;4.90;;;;;;;;;;5030426;28;20465;-60
2021/04/11 00:20:04;;;;;;;5.15;4.93;;;;;;;;;;5021849;28;20092;-60
2021/04/11 00:22:30;;;;;;;6.15;5.85;;;;;;;;;;5032798;28;20034;-60
2021/04/11 00:24:57;;;;;;;9.93;9.05;;;;;;;;;;5022977;28;20049;-60
2021/04/11 00:27:23;;;;;;;7.57;7.30;;;;;;;;;;5019601;28;20038;-60
2021/04/11 00:29:49;;;;;;;7.28;6.95;;;;;;;;;;5029879;28;20493;-60
2021/04/11 00:32:16;;;;;;;10.20;9.90;;;;;;;;;;5027376;28;20041;-59
2021/04/11 00:34:42;;;;;;;10.30;9.85;;;;;;;;;;5023446;28;20105;-59
2021/04/11 00:37:09;;;;;;;11.80;11.35;;;;;;;;;;5027445;28;20037;-60
2021/04/11 00:39:36;;;;;;;10.93;10.63;;;;;;;;;;5028623;28;20048;-60
2021/04/11 00:42:07;;;;;;;13.43;12.93;;;;;;;;;;5032215;28;20076;-59
2021/04/11 00:44:33;;;;;;;14.70;14.35;;;;;;;;;;5026926;28;20037;-60
2021/04/11 00:47:00;;;;;;;13.68;13.38;;;;;;;;;;5033318;28;20125;-59
2021/04/11 00:49:32;;;;;;;13.52;13.13;;;;;;;;;;5029354;28;20069;-59
2021/04/11 00:51:58;;;;;;;12.13;11.80;;;;;;;;;;5026925;28;20255;-60
2021/04/11 00:54:25;;;;;;;14.68;14.18;;;;;;;;;;5025024;28;20089;-59
2021/04/11 00:56:51;;;;;;;15.70;15.05;;;;;;;;;;5024776;28;20048;-59
2021/04/11 00:59:21;;;;;;;14.10;13.48;;;;;;;;;;5032224;28;20056;-59
2021/04/11 01:01:47;;;;;;;14.68;14.07;;;;;;;;;;5028790;28;20119;-59
2021/04/11 01:04:15;;;;;;;17.13;16.40;;;;;;;;;;5029253;28;20038;-59
2021/04/11 01:06:46;;;;;;;13.63;12.98;;;;;;;;;;5031641;28;20045;-59
2021/04/11 01:09:22;;;;;;;14.05;13.73;;;;;;;;;;5026187;28;20055;-59
2021/04/11 01:11:48;;;;;;;15.60;15.30;;;;;;;;;;5030086;28;20060;-59
2021/04/11 01:14:15;;;;;;;14.65;14.13;;;;;;;;;;5027703;28;20091;-59
2021/04/11 01:16:42;;;;;;;16.35;15.82;;;;;;;;;;5026291;28;20050;-59
2021/04/11 01:19:11;;;;;;;14.73;14.52;;;;;;;;;;5031486;28;20045;-59
2021/04/11 01:21:56;;;;;;;13.02;12.82;;;;;;;;;;5025266;28;20056;-59
2021/04/11 01:24:23;;;;;;;12.32;12.13;;;;;;;;;;5025317;28;20373;-60
2021/04/11 01:26:50;;;;;;;9.80;9.43;;;;;;;;;;5032038;28;20041;-59
2021/04/11 01:29:17;;;;;;;12.60;12.45;;;;;;;;;;5026653;28;20112;-59
2021/04/11 01:31:44;;;;;;;10.85;10.55;;;;;;;;;;5030844;28;20037;-59
2021/04/11 01:34:13;;;;;;;9.70;9.45;;;;;;;;;;5028414;28;20179;-59
2021/04/11 01:36:41;;;;;;;9.57;9.27;;;;;;;;;;5027291;28;20485;-59
2021/04/11 01:39:15;;;;;;;10.13;9.82;;;;;;;;;;5025078;28;20033;-59
2021/04/11 01:41:43;;;;;;;9.70;9.25;;;;;;;;;;5024824;28;20044;-59
2021/04/11 01:44:11;;;;;;;9.82;9.63;;;;;;;;;;5031457;28;20386;-59
2021/04/11 01:46:37;;;;;;;10.18;10.05;;;;;;;;;;5017799;28;20478;-59
2021/04/11 01:49:04;;;;;;;7.80;7.38;;;;;;;;;;5022524;28;20052;-59
2021/04/11 01:51:32;;;;;;;6.82;6.68;;;;;;;;;;5019216;28;20056;-58
2021/04/11 01:53:59;;;;;;;5.90;5.70;;;;;;;;;;5026981;28;20486;-59
2021/04/11 01:56:26;;;;;;;6.15;5.85;;;;;;;;;;5020347;28;20040;-59
2021/04/11 01:58:52;;;;;;;6.93;6.63;;;;;;;;;;5030233;28;20045;-59
2021/04/11 02:01:20;;;;;;;8.10;7.50;;;;;;;;;;5023411;28;20041;-59
2021/04/11 02:03:56;;;;;;;9.93;9.65;;;;;;;;;;5029788;28;20514;-59
2021/04/11 02:06:23;;;;;;;11.68;11.48;;;;;;;;;;5027049;28;20486;-58
2021/04/11 02:08:52;;;;;;;13.73;13.20;;;;;;;;;;5024894;28;20067;-59
2021/04/11 02:11:19;;;;;;;14.65;14.13;;;;;;;;;;5015890;28;20049;-58
2021/04/11 02:13:46;;;;;;;12.43;12.02;;;;;;;;;;5022329;28;20120;-59
2021/04/11 02:16:14;;;;;;;12.27;11.38;;;;;;;;;;5026260;28;20029;-58
2021/04/11 02:18:41;;;;;;;9.70;9.60;;;;;;;;;;5022040;28;20052;-58
2021/04/11 02:21:19;;;;;;;12.63;12.32;;;;;;;;;;5022947;28;20034;-59
2021/04/11 02:23:45;;;;;;;11.65;11.45;;;;;;;;;;5014580;28;20046;-58
2021/04/11 02:26:12;;;;;;;14.02;13.32;;;;;;;;;;5024850;28;20069;-58
2021/04/11 02:28:38;;;;;;;14.52;14.15;;;;;;;;;;5029254;28;20103;-57
2021/04/11 02:31:18;;;;;;;10.20;10.00;;;;;;;;;;5029197;28;20065;-59
2021/04/11 02:33:48;;;;;;;11.38;10.63;;;;;;;;;;5024738;28;20053;-59
2021/04/11 02:36:17;;;;;;;10.57;10.18;;;;;;;;;;5029479;28;20030;-58
2021/04/11 02:38:45;;;;;;;13.25;12.82;;;;;;;;;;5017808;28;20052;-59
2021/04/11 02:41:12;;;;;;;13.05;12.68;;;;;;;;;;5021524;28;20045;-59
2021/04/11 02:43:39;;;;;;;16.10;15.57;;;;;;;;;;5030596;28;20400;-58
2021/04/11 02:46:05;;;;;;;15.98;15.57;;;;;;;;;;5024997;28;20041;-59
2021/04/11 02:48:32;;;;;;;15.45;14.98;;;;;;;;;;5027191;28;20132;-59
2021/04/11 02:50:58;;;;;;;14.45;14.23;;;;;;;;;;5018730;28;20498;-59
2021/04/11 02:53:25;;;;;;;16.13;15.80;;;;;;;;;;5019335;28;20490;-58
2021/04/11 02:55:53;;;;;;;15.68;15.27;;;;;;;;;;5013796;28;20378;-59
2021/04/11 02:58:21;;;;;;;14.73;14.52;;;;;;;;;;5023318;28;20025;-59
2021/04/11 03:00:55;;;;;;;13.15;12.88;;;;;;;;;;5020102;28;20034;-59
2021/04/11 03:03:21;;;;;;;12.40;12.10;;;;;;;;;;5029820;28;20034;-59
2021/04/11 03:05:48;;;;;;;14.02;13.32;;;;;;;;;;5022447;28;20042;-59
2021/04/11 03:08:16;;;;;;;13.10;12.63;;;;;;;;;;5031872;28;20060;-58
2021/04/11 03:11:01;;;;;;;11.07;10.57;;;;;;;;;;5022093;28;20128;-57
2021/04/11 03:13:28;;;;;;;11.93;11.40;;;;;;;;;;5018926;28;20385;-59
2021/04/11 03:15:55;;;;;;;14.63;14.02;;;;;;;;;;5018589;28;20428;-57
2021/04/11 03:18:22;;;;;;;14.50;14.00;;;;;;;;;;5019955;28;20042;-58
2021/04/11 03:20:49;;;;;;;11.48;11.20;;;;;;;;;;5025629;28;20132;-59
2021/04/11 03:23:17;;;;;;;13.75;13.20;;;;;;;;;;5026694;28;20474;-59
2021/04/11 03:25:43;;;;;;;14.05;13.65;;;;;;;;;;5019971;28;20592;-58
2021/04/11 03:28:12;;;;;;;14.05;13.38;;;;;;;;;;5031601;28;20128;-59
2021/04/11 03:30:53;;;;;;;15.77;15.32;;;;;;;;;;5020375;28;20058;-59
2021/04/11 03:33:20;;;;;;;15.07;14.82;;;;;;;;;;5021243;28;20038;-58
2021/04/11 03:35:48;;;;;;;15.43;14.95;;;;;;;;;;5029597;28;20141;-59
2021/04/11 03:38:17;;;;;;;14.50;14.20;;;;;;;;;;5023850;28;20034;-59
2021/04/11 03:40:45;;;;;;;14.32;14.05;;;;;;;;;;5022789;28;20025;-58
2021/04/11 03:43:14;;;;;;;18.48;17.90;;;;;;;;;;5026127;28;20052;-59
2021/04/11 03:45:40;;;;;;;17.35;16.73;;;;;;;;;;5020690;28;20506;-58
2021/04/11 03:48:17;;;;;;;14.70;14.32;;;;;;;;;;5026197;28;20512;-58
2021/04/11 03:50:56;;;;;;;15.77;15.57;;;;;;;;;;5022369;28;20134;-58
2021/04/11 03:53:26;;;;;;;17.48;16.98;;;;;;;;;;5028488;28;20541;-58
2021/04/11 03:55:57;;;;;;;14.70;14.30;;;;;;;;;;5028609;28;20034;-59
2021/04/11 03:58:34;;;;;;;15.75;15.52;;;;;;;;;;5022573;28;20045;-59
2021/04/11 04:01:08;;;;;;;14.45;14.05;;;;;;;;;;5022190;28;20493;-58
2021/04/11 04:03:35;;;;;;;15.60;15.10;;;;;;;;;;5027296;28;20034;-59
2021/04/11 04:06:09;;;;;;;16.27;15.43;;;;;;;;;;5026481;28;20048;-58
2021/04/11 04:08:35;;;;;;;;;;;;;;;;;;5028296;28;20041;-58
2021/04/11 04:11:20;;;;;;;17.25;16.75;;;;;;;;;;5022446;28;19921;-59
2021/04/11 04:13:46;;;;;;;17.73;16.90;;;;;;;;;;5026926;28;20137;-59
2021/04/11 04:16:15;;;;;;;18.40;18.00;;;;;;;;;;5012634;28;20445;-59
2021/04/11 04:18:44;;;;;;;19.00;18.35;;;;;;;;;;5023830;28;20389;-59
2021/04/11 04:21:25;;;;;;;18.17;17.20;;;;;;;;;;5026569;28;20053;-58
2021/04/11 04:23:51;;;;;;;19.63;19.00;;;;;;;;;;5026979;28;20042;-58
2021/04/11 04:26:23;;;;;;;19.45;18.70;;;;;;;;;;5022590;28;20045;-59
2021/04/11 04:28:53;;;;;;;18.95;18.02;;;;;;;;;;5017527;28;20045;-58
2021/04/11 04:31:31;;;;;;;18.25;17.67;;;;;;;;;;5026908;28;20052;-59
2021/04/11 04:34:00;;;;;;;17.13;16.73;;;;;;;;;;5027218;28;20042;-58
2021/04/11 04:36:26;;;;;;;17.35;17.15;;;;;;;;;;5034163;28;20084;-58
2021/04/11 04:38:58;;;;;;;17.88;17.33;;;;;;;;;;5025311;28;20041;-59
2021/04/11 04:41:37;;;;;;;14.05;13.70;;;;;;;;;;5023808;28;20042;-57
2021/04/11 04:44:08;;;;;;;16.52;16.13;;;;;;;;;;5031237;28;20052;-58
2021/04/11 04:46:40;;;;;;;16.00;15.52;;;;;;;;;;5025208;28;20053;-59
2021/04/11 04:49:22;;;;;;;16.33;15.75;;;;;;;;;;5023086;28;20042;-59
2021/04/11 04:51:59;;;;;;;14.85;14.50;;;;;;;;;;5022976;28;20064;-59
2021/04/11 04:54:26;;;;;;;11.88;11.43;;;;;;;;;;5025426;28;20038;-59
2021/04/11 04:56:56;;;;;;;11.80;11.30;;;;;;;;;;5026071;28;20041;-59
2021/04/11 04:59:24;;;;;;;11.43;11.05;;;;;;;;;;5025200;28;20462;-59
2021/04/11 05:01:54;;;;;;;4.15;4.05;;;;;;;;;;5019504;28;20038;-57
2021/04/11 05:04:22;;;;;;;5.40;5.25;;;;;;;;;;5031797;28;20052;-59
2021/04/11 05:06:52;;;;;;;9.40;8.90;;;;;;;;;;5025565;28;20041;-59
2021/04/11 05:09:26;;;;;;;10.63;10.27;;;;;;;;;;5029868;28;20037;-59
2021/04/11 05:11:56;;;;;;;13.40;12.77;;;;;;;;;;5028933;28;20037;-59
2021/04/11 05:14:45;;;;;;;14.98;14.57;;;;;;;;;;5027375;28;20037;-57
2021/04/11 05:17:18;;;;;;;16.25;15.82;;;;;;;;;;5023791;28;23787;-58
2021/04/11 05:19:46;;;;;;;17.48;16.45;;;;;;;;;;5024591;28;20053;-58
2021/04/11 05:22:24;;;;;;;15.27;14.68;;;;;;;;;;5027613;28;20783;-59
2021/04/11 05:25:20;;;;;;;19.33;18.20;;;;;;;;;;5043844;28;21687;-59
2021/04/11 05:27:50;;;;;;;17.30;16.30;;;;;;;;;;5029344;28;20072;-57
2021/04/11 05:30:25;;;;;;;18.60;18.08;;;;;;;;;;5029190;28;20448;-59
2021/04/11 05:32:51;;;;;;;18.60;17.90;;;;;;;;;;5032673;28;20420;-58
2021/04/11 05:35:18;;;;;;;16.40;16.00;;;;;;;;;;5022178;28;20038;-58
2021/04/11 05:37:50;;;;;;;15.00;14.38;;;;;;;;;;5025711;28;20034;-58
2021/04/11 05:40:19;;;;;;;15.45;14.70;;;;;;;;;;5028171;28;20125;-59
2021/04/11 05:42:45;;;;;;;17.15;16.77;;;;;;;;;;5027851;28;20037;-59
2021/04/11 05:45:16;;;;;;;16.63;16.05;;;;;;;;;;5020556;28;20108;-59
2021/04/11 05:47:51;;;;;;;14.20;13.27;;;;;;;;;;5024422;28;20041;-59
2021/04/11 05:50:17;;;;;;;14.93;13.65;;;;;;;;;;5029097;28;20721;-59
2021/04/11 05:53:02;;;;;;;17.42;16.88;;;;;;;;;;5031497;28;20042;-59
2021/04/11 05:55:30;;;;;;;16.65;16.20;;;;;;;;;;5024936;28;20061;-58
2021/04/11 05:58:01;;;;;;;17.17;16.30;;;;;;;;;;5018080;28;20462;-59
2021/04/11 06:00:35;;;;;;;15.00;14.27;;;;;;;;;;5007051;28;20045;-59
2021/04/11 06:03:05;;;;;;;13.35;13.15;;;;;;;;;;5019419;28;20041;-59
2021/04/11 06:05:38;;;;;;;13.20;12.68;;;;;;;;;;5032472;28;20409;-59
2021/04/11 06:08:04;;;;;;;11.10;10.80;;;;;;;;;;5025804;28;20052;-59
2021/04/11 06:10:36;;;;;;;12.60;11.90;;;;;;;;;;5023099;28;20049;-59
2021/04/11 06:13:32;;;;;;;10.63;10.33;;;;;;;;;;5028119;28;20033;-59
2021/04/11 06:16:10;;;;;;;15.07;14.57;;;;;;;;;;5025013;28;20305;-59
2021/04/11 06:18:50;;;;;;;16.05;15.55;;;;;;;;;;5017833;28;20034;-57
2021/04/11 06:21:31;;;;;;;15.75;15.18;;;;;;;;;;5025181;28;20034;-58
2021/04/11 06:24:04;;;;;;;16.15;15.10;;;;;;;;;;5025534;28;20037;-59
2021/04/11 06:26:30;;;;;;;18.23;17.23;;;;;;;;;;5028265;28;20088;-59
2021/04/11 06:29:18;;;;;;;18.30;17.80;;;;;;;;;;5029605;28;20045;-59
2021/04/11 06:31:52;;;;;;;18.30;17.67;;;;;;;;;;5026068;28;20049;-59
2021/04/11 06:34:24;;;;;;;17.27;16.77;;;;;;;;;;5028511;28;20136;-59
2021/04/11 06:36:54;;;;;;;17.95;17.08;;;;;;;;;;5028394;28;20045;-58
2021/04/11 06:39:20;;;;;;;17.85;17.15;;;;;;;;;;5024263;28;20800;-59
2021/04/11 06:41:55;;;;;;;17.42;16.85;;;;;;;;;;5032668;28;20046;-59
2021/04/11 06:44:36;;;;;;;19.73;18.75;;;;;;;;;;5027102;28;20037;-59
2021/04/11 06:47:21;;;;;;;17.23;16.88;;;;;;;;;;5039895;28;20131;-59
2021/04/11 06:49:47;;;;;;;17.85;17.42;;;;;;;;;;5031795;28;20045;-59
2021/04/11 06:52:19;;;;;;;16.75;16.35;;;;;;;;;;5024583;28;20037;-59
2021/04/11 06:54:53;;;;;;;19.17;18.58;;;;;;;;;;5026997;28;20037;-57
2021/04/11 06:57:19;;;;;;;16.90;16.55;;;;;;;;;;5029847;28;20045;-59
2021/04/11 06:59:45;;;;;;;18.73;17.83;;;;;;;;;;5024969;28;20041;-59
2021/04/11 07:02:30;;;;;;;18.48;17.92;;;;;;;;;;5022107;28;20033;-58
2021/04/11 07:05:00;;;;;;;17.35;16.75;;;;;;;;;;5026229;28;20148;-59
2021/04/11 07:07:29;;;;;;;17.90;17.55;;;;;;;;;;5025739;28;20471;-59
2021/04/11 07:09:58;;;;;;;16.75;16.08;;;;;;;;;;5014644;28;20042;-59
2021/04/11 07:12:43;;;;;;;11.65;11.45;;;;;;;;;;5024015;28;20394;-59
2021/04/11 07:15:28;;;;;;;15.73;15.13;;;;;;;;;;5025153;28;20447;-59
2021/04/11 07:18:04;;;;;;;16.45;16.02;;;;;;;;;;5026279;28;20050;-60
2021/04/11 07:20:43;;;;;;;18.02;17.52;;;;;;;;;;5018947;28;20038;-59
2021/04/11 07:23:16;;;;;;;16.40;16.08;;;;;;;;;;5023977;28;20045;-59
2021/04/11 07:25:45;;;;;;;16.40;15.87;;;;;;;;;;5030072;28;20050;-59
2021/04/11 07:28:23;;;;;;;16.55;15.30;;;;;;;;;;5024035;28;20041;-59
2021/04/11 07:30:56;;;;;;;17.38;16.58;;;;;;;;;;5017557;28;20124;-58
2021/04/11 07:33:41;;;;;;;16.73;15.73;;;;;;;;;;5027703;28;20049;-59
2021/04/11 07:36:34;;;;;;;15.23;14.60;;;;;;;;;;5030017;28;20037;-59
2021/04/11 07:39:15;;;;;;;15.60;15.00;;;;;;;;;;5019195;28;20107;-60
2021/04/11 07:41:47;;;;;;;16.40;15.90;;;;;;;;;;5026866;28;20490;-59
2021/04/11 07:44:14;;;;;;;11.02;10.65;;;;;;;;;;5023894;28;20038;-59
2021/04/11 07:46:49;;;;;;;18.13;17.30;;;;;;;;;;5020914;28;20068;-60
2021/04/11 07:49:15;;;;;;;15.50;15.05;;;;;;;;;;5024287;28;20883;-60
2021/04/11 07:51:44;;;;;;;17.35;16.77;;;;;;;;;;5023476;28;20042;-59
2021/04/11 07:54:10;;;;;;;17.38;16.77;;;;;;;;;;5016423;28;20092;-56
2021/04/11 07:56:55;;;;;;;17.60;16.67;;;;;;;;;;5025457;28;20563;-60
2021/04/11 07:59:37;;;;;;;16.77;16.02;;;;;;;;;;5027493;28;20386;-60
2021/04/11 08:02:07;;;;;;;16.48;15.90;;;;;;;;;;5031384;28;20474;-60
2021/04/11 08:04:40;;;;;;;12.70;12.38;;;;;;;;;;5027729;28;20042;-60
2021/04/11 08:07:17;;;;;;;16.25;15.27;;;;;;;;;;5015966;28;20108;-59
2021/04/11 08:09:47;;;;;;;14.43;13.48;;;;;;;;;;5028404;28;20479;-59
2021/04/11 08:12:42;;;;;;;19.60;18.15;;;;;;;;;;5027087;28;20426;-59
2021/04/11 08:15:18;;;;;;;61.88;45.60;;;;;;;;;;5037367;28;20045;-60
2021/04/11 08:18:11;;;;;;;48.53;37.53;;;;;;;;;;5029719;28;20037;-59
2021/04/11 08:20:46;;;;;;;31.52;28.33;;;;;;;;;;5028636;28;20066;-59
2021/04/11 08:23:21;;;;;;;28.77;26.10;;;;;;;;;;5033412;28;20041;-60
2021/04/11 08:25:47;;;;;;;26.40;24.40;;;;;;;;;;5030407;28;20045;-59
2021/04/11 08:28:19;;;;;;;22.65;20.45;;;;;;;;;;5023809;28;20041;-59
2021/04/11 08:30:58;;;;;;;19.95;17.98;;;;;;;;;;5031871;28;20052;-59
2021/04/11 08:33:35;;;;;;;17.67;16.08;;;;;;;;;;5029570;28;20073;-60
2021/04/11 08:36:20;;;;;;;16.23;15.25;;;;;;;;;;5029278;28;20428;-59
2021/04/11 08:38:58;;;;;;;17.95;17.05;;;;;;;;;;5032947;28;20033;-60
2021/04/11 08:41:27;;;;;;;17.77;16.88;;;;;;;;;;5028357;28;20049;-59
2021/04/11 08:43:59;;;;;;;16.50;15.80;;;;;;;;;;5030350;28;20034;-59
2021/04/11 08:46:25;;;;;;;13.82;13.25;;;;;;;;;;5031589;28;20106;-60
2021/04/11 08:49:14;;;;;;;14.68;14.02;;;;;;;;;;5010656;28;20052;-60
2021/04/11 08:51:49;;;;;;;16.92;16.23;;;;;;;;;;5030802;28;20466;-59
2021/04/11 08:54:29;;;;;;;16.27;15.48;;;;;;;;;;5032304;28;20084;-60
2021/04/11 08:56:58;;;;;;;13.65;13.18;;;;;;;;;;5027278;28;20568;-59
2021/04/11 08:59:44;;;;;;;11.70;10.95;;;;;;;;;;5031928;28;20037;-60
2021/04/11 09:02:29;;;;;;;7.53;7.18;;;;;;;;;;5030778;28;20072;-60
2021/04/11 09:05:01;;;;;;;8.45;7.75;;;;;;;;;;5027248;28;20085;-59
2021/04/11 09:07:28;;;;;;;9.65;9.15;;;;;;;;;;5031390;28;20042;-60
2021/04/11 09:10:00;;;;;;;12.60;12.40;;;;;;;;;;5019468;28;20517;-59
2021/04/11 09:12:28;;;;;;;;;;;;;;;;;;5027120;28;20045;-59
2021/04/11 09:14:54;;;;;;;14.90;14.18;;;;;;;;;;5031107;28;19928;-59
2021/04/11 09:17:35;;;;;;;14.52;14.15;;;;;;;;;;5025958;28;20037;-60
2021/04/11 09:20:01;;;;;;;14.93;13.77;;;;;;;;;;5029006;28;20048;-59
2021/04/11 09:22:39;;;;;;;16.23;15.32;;;;;;;;;;5030530;28;20084;-59
2021/04/11 09:25:14;;;;;;;15.88;15.38;;;;;;;;;;5026277;28;20033;-59
2021/04/11 09:27:43;;;;;;;16.80;15.30;;;;;;;;;;5032125;28;20041;-59
2021/04/11 09:30:26;;;;;;;17.17;16.45;;;;;;;;;;5027771;28;20045;-59
2021/04/11 09:33:07;;;;;;;15.13;14.60;;;;;;;;;;5026040;28;20052;-58
2021/04/11 09:35:45;;;;;;;14.60;13.88;;;;;;;;;;5030717;28;20038;-59
2021/04/11 09:38:12;;;;;;;15.80;14.95;;;;;;;;;;5026945;28;20046;-59
2021/04/11 09:40:47;;;;;;;17.70;16.80;;;;;;;;;;5027309;28;20467;-59
2021/04/11 09:43:31;;;;;;;19.35;18.13;;;;;;;;;;5032867;28;20041;-59
2021/04/11 09:46:00;;;;;;;17.38;16.30;;;;;;;;;;5025998;28;20038;-59
2021/04/11 09:48:33;;;;;;;17.77;16.75;;;;;;;;;;5030228;28;20033;-59
2021/04/11 09:51:28;;;;;;;18.00;17.20;;;;;;;;;;5028889;28;20057;-59
2021/04/11 09:53:55;;;;;;;16.17;15.68;;;;;;;;;;5029833;28;20057;-59
2021/04/11 09:56:22;;;;;;;18.60;17.80;;;;;;;;;;5028338;28;20128;-58
2021/04/11 09:59:00;;;;;;;16.67;15.90;;;;;;;;;;5029880;28;20047;-59
2021/04/11 10:01:32;;;;;;;16.88;16.33;;;;;;;;;;5023649;28;20434;-59
2021/04/11 10:04:04;;;;;;;15.98;15.43;;;;;;;;;;5029862;28;20041;-59
2021/04/11 10:06:46;;;;;;;15.68;14.70;;;;;;;;;;5028828;28;20037;-59
2021/04/11 10:09:12;;;;;;;14.75;14.45;;;;;;;;;;5023481;28;20048;-58
2021/04/11 10:11:55;;;;;;;15.23;14.32;;;;;;;;;;5030350;28;20111;-59
2021/04/11 10:14:35;;;;;;;17.08;16.05;;;;;;;;;;5023099;28;20099;-55
2021/04/11 10:17:20;;;;;;;14.57;14.38;;;;;;;;;;5021306;28;20477;-56
2021/04/11 10:20:05;;;;;;;17.63;17.05;;;;;;;;;;5029589;28;20033;-56
2021/04/11 10:22:37;;;;;;;16.85;16.30;;;;;;;;;;5026681;28;20477;-55
2021/04/11 10:25:22;;;;;;;16.20;15.70;;;;;;;;;;5026161;28;20037;-56
2021/04/11 10:28:07;;;;;;;13.68;13.38;;;;;;;;;;5027759;28;20053;-55
2021/04/11 10:30:34;;;;;;;12.13;11.93;;;;;;;;;;5021751;28;20044;-56
2021/04/11 10:33:07;;;;;;;13.52;12.93;;;;;;;;;;5023403;28;20114;-56
2021/04/11 10:35:41;;;;;;;7.90;7.40;;;;;;;;;;5024857;28;20041;-56
2021/04/11 10:38:18;;;;;;;8.70;8.40;;;;;;;;;;5025140;28;20033;-57
2021/04/11 10:41:04;;;;;;;7.28;7.13;;;;;;;;;;5026795;28;20551;-56
2021/04/11 10:43:46;;;;;;;4.65;4.35;;;;;;;;;;5022697;28;21877;-56
2021/04/11 10:46:17;;;;;;;5.30;5.10;;;;;;;;;;5023758;28;20130;-56
2021/04/11 10:49:02;;;;;;;4.32;4.22;;;;;;;;;;5028577;28;20044;-56
2021/04/11 10:51:45;;;;;;;4.60;4.30;;;;;;;;;;5023088;28;20105;-56
2021/04/11 10:54:29;;;;;;;4.53;4.43;;;;;;;;;;5023216;28;20088;-56
2021/04/11 10:57:22;;;;;;;5.28;4.80;;;;;;;;;;5029967;28;20041;-56
2021/04/11 10:59:54;;;;;;;4.28;4.10;;;;;;;;;;5025337;28;20048;-56
2021/04/11 11:02:39;;;;;;;5.57;5.27;;;;;;;;;;5027959;28;20046;-56
2021/04/11 11:05:08;;;;;;;5.68;5.47;;;;;;;;;;5029278;28;20091;-55
2021/04/11 11:07:57;;;;;;;6.85;6.65;;;;;;;;;;5024100;28;20449;-56
2021/04/11 11:10:42;;;;;;;4.40;4.32;;;;;;;;;;5024673;28;20034;-56
2021/04/11 11:13:19;;;;;;;7.88;7.38;;;;;;;;;;5026952;28;20398;-56
2021/04/11 11:15:54;;;;;;;6.93;6.72;;;;;;;;;;5018946;28;20050;-55
2021/04/11 11:18:34;;;;;;;9.02;8.70;;;;;;;;;;5016809;28;20050;-55
2021/04/11 11:21:08;;;;;;;6.45;6.35;;;;;;;;;;5025261;28;20492;-56
2021/04/11 11:23:59;;;;;;;4.15;3.85;;;;;;;;;;5021834;28;20033;-55
2021/04/11 11:26:25;;;;;;;7.18;7.07;;;;;;;;;;5029310;28;20049;-56
2021/04/11 11:28:51;;;;;;;7.93;7.82;;;;;;;;;;5028630;28;20060;-56
2021/04/11 11:31:29;;;;;;;8.02;7.70;;;;;;;;;;5021476;28;20060;-55
2021/04/11 11:34:06;;;;;;;9.65;9.45;;;;;;;;;;5017872;28;20034;-56
2021/04/11 11:36:51;;;;;;;10.93;10.52;;;;;;;;;;5026301;28;20033;-56
2021/04/11 11:39:17;;;;;;;9.07;8.88;;;;;;;;;;5028814;28;20524;-56
2021/04/11 11:42:18;;;;;;;9.90;9.63;;;;;;;;;;5035716;28;20386;-55
2021/04/11 11:44:55;;;;;;;7.38;7.25;;;;;;;;;;4992564;28;20050;-56
2021/04/11 11:47:28;;;;;;;8.85;8.55;;;;;;;;;;5021796;28;20050;-56
2021/04/11 11:50:13;;;;;;;8.75;8.65;;;;;;;;;;5021524;28;20494;-55
2021/04/11 11:52:45;;;;;;;7.53;7.43;;;;;;;;;;5030440;28;20092;-56
2021/04/11 11:55:11;;;;;;;9.13;8.93;;;;;;;;;;5031301;28;20630;-56
2021/04/11 11:57:37;;;;;;;11.32;10.73;;;;;;;;;;5034085;28;20072;-56
2021/04/11 12:00:04;;;;;;;8.30;8.02;;;;;;;;;;5025351;28;20078;-56
2021/04/11 12:02:36;;;;;;;10.20;9.98;;;;;;;;;;5020672;28;20034;-56
2021/04/11 12:05:02;;;;;;;9.33;9.23;;;;;;;;;;5031932;28;20037;-56
2021/04/11 12:07:37;;;;;;;10.95;10.65;;;;;;;;;;5029129;28;20367;-56
2021/04/11 12:10:13;;;;;;;11.77;11.27;;;;;;;;;;5041971;28;20067;-55
2021/04/11 12:12:45;;;;;;;11.13;10.70;;;;;;;;;;5023599;28;20455;-57
2021/04/11 12:15:20;;;;;;;12.68;12.30;;;;;;;;;;5021688;28;20100;-56
2021/04/11 12:17:53;;;;;;;9.13;8.82;;;;;;;;;;5033521;28;20053;-57
2021/04/11 12:20:19;;;;;;;9.73;9.23;;;;;;;;;;5028202;28;20050;-56
2021/04/11 12:23:01;;;;;;;9.60;9.40;;;;;;;;;;5032230;28;20589;-56
2021/04/11 12:25:31;;;;;;;9.25;8.70;;;;;;;;;;5031460;28;20065;-56
2021/04/11 12:28:18;;;;;;;10.63;10.25;;;;;;;;;;5027123;28;20034;-57
2021/04/11 12:30:44;;;;;;;7.10;6.80;;;;;;;;;;5035304;28;20050;-57
2021/04/11 12:33:20;;;;;;;7.50;7.30;;;;;;;;;;5029789;28;20037;-56
2021/04/11 12:35:55;;;;;;;9.60;9.23;;;;;;;;;;5024389;28;20088;-56
2021/04/11 12:38:26;;;;;;;6.55;6.28;;;;;;;;;;5028817;28;20120;-56
2021/04/11 12:41:02;;;;;;;7.78;7.57;;;;;;;;;;5026737;28;20123;-56
2021/04/11 12:43:47;;;;;;;9.05;8.77;;;;;;;;;;5025506;28;20141;-56
2021/04/11 12:46:17;;;;;;;8.55;8.15;;;;;;;;;;5027351;28;20038;-55
2021/04/11 12:49:02;;;;;;;13.45;12.63;;;;;;;;;;5024693;28;20047;-56
2021/04/11 12:51:32;;;;;;;8.27;8.18;;;;;;;;;;5027821;28;20498;-56
2021/04/11 12:54:03;;;;;;;9.50;9.27;;;;;;;;;;5030624;28;20038;-56
2021/04/11 12:56:31;;;;;;;10.45;10.25;;;;;;;;;;5023978;28;20034;-56
2021/04/11 12:59:00;;;;;;;9.55;9.45;;;;;;;;;;5031450;28;20091;-56
2021/04/11 13:01:29;;;;;;;6.82;6.72;;;;;;;;;;5030411;28;20437;-56
2021/04/11 13:03:59;;;;;;;11.68;11.00;;;;;;;;;;5026210;28;20052;-56
2021/04/11 13:06:29;;;;;;;8.00;7.70;;;;;;;;;;5033857;28;20045;-56
2021/04/11 13:08:56;;;;;;;6.65;6.43;;;;;;;;;;5027965;28;20068;-56
2021/04/11 13:11:42;;;;;;;7.97;7.88;;;;;;;;;;5029264;28;20069;-55
2021/04/11 13:14:15;;;;;;;6.80;6.50;;;;;;;;;;5033125;28;20073;-56
2021/04/11 13:16:41;;;;;;;6.60;6.40;;;;;;;;;;5023292;28;20053;-56
2021/04/11 13:19:10;;;;;;;6.93;6.82;;;;;;;;;;5031270;28;20036;-55
2021/04/11 13:21:43;;;;;;;7.18;6.97;;;;;;;;;;5029934;28;20061;-56
2021/04/11 13:24:19;;;;;;;4.97;4.70;;;;;;;;;;5026649;28;20030;-56
2021/04/11 13:26:52;;;;;;;5.07;4.88;;;;;;;;;;5026368;28;20046;-55
2021/04/11 13:29:24;;;;;;;5.63;5.33;;;;;;;;;;5027749;28;20045;-56
2021/04/11 13:31:56;;;;;;;7.05;6.68;;;;;;;;;;5029079;28;20359;-55
2021/04/11 13:34:29;;;;;;;4.50;4.35;;;;;;;;;;5033432;28;20057;-56
2021/04/11 13:36:56;;;;;;;5.50;5.40;;;;;;;;;;5024600;28;20045;-54
2021/04/11 13:39:22;;;;;;;4.40;3.97;;;;;;;;;;5028897;28;20299;-56
2021/04/11 13:41:48;;;;;;;3.17;3.08;;;;;;;;;;5029393;28;20044;-55
2021/04/11 13:44:14;;;;;;;3.92;3.65;;;;;;;;;;5025723;28;20049;-55
2021/04/11 13:46:44;;;;;;;4.65;4.55;;;;;;;;;;5015644;28;20041;-56
2021/04/11 13:49:10;;;;;;;3.72;3.22;;;;;;;;;;5026489;28;20486;-55
2021/04/11 13:51:42;;;;;;;3.75;3.65;;;;;;;;;;5028779;28;20498;-56
2021/04/11 13:54:08;;;;;;;3.25;3.22;;;;;;;;;;5028031;28;20053;-56
2021/04/11 13:56:53;;;;;;;3.03;2.92;;;;;;;;;;5025111;28;20069;-56
2021/04/11 13:59:29;;;;;;;4.38;4.28;;;;;;;;;;5031537;28;20500;-56
2021/04/11 14:01:57;;;;;;;4.03;3.92;;;;;;;;;;5027791;28;20441;-56
2021/04/11 14:04:33;;;;;;;5.82;5.63;;;;;;;;;;5026870;28;20145;-56
2021/04/11 14:07:21;;;;;;;5.32;5.22;;;;;;;;;;5032340;28;20038;-55
2021/04/11 14:09:49;;;;;;;5.10;5.00;;;;;;;;;;5027108;28;20080;-56
2021/04/11 14:12:25;;;;;;;6.32;6.22;;;;;;;;;;5027271;28;20121;-57
2021/04/11 14:15:02;;;;;;;4.05;3.95;;;;;;;;;;5024235;28;20096;-56
2021/04/11 14:17:34;;;;;;;3.88;3.67;;;;;;;;;;5025537;28;20034;-56
2021/04/11 14:20:01;;;;;;;4.50;4.40;;;;;;;;;;5028402;28;20136;-56
2021/04/11 14:22:30;;;;;;;4.70;4.60;;;;;;;;;;5017745;28;20049;-56
2021/04/11 14:25:08;;;;;;;4.72;4.63;;;;;;;;;;5024480;28;20057;-56
2021/04/11 14:27:41;;;;;;;5.60;5.20;;;;;;;;;;5030514;28;20056;-56
2021/04/11 14:30:10;;;;;;;5.70;5.68;;;;;;;;;;5026117;28;20588;-56
2021/04/11 14:32:36;;;;;;;3.97;3.97;;;;;;;;;;5025726;28;20434;-56
2021/04/11 14:35:13;;;;;;;6.05;5.85;;;;;;;;;;5023547;28;20520;-56
2021/04/11 14:37:49;;;;;;;7.10;6.90;;;;;;;;;;5024654;28;20041;-56
2021/04/11 14:40:18;;;;;;;6.40;6.20;;;;;;;;;;5028431;28;20389;-56
2021/04/11 14:42:50;;;;;;;11.18;10.63;;;;;;;;;;5029250;28;20063;-57
2021/04/11 14:45:20;;;;;;;11.25;10.65;;;;;;;;;;5019052;28;20483;-56
2021/04/11 14:47:46;;;;;;;10.43;9.73;;;;;;;;;;5027018;28;20087;-56
2021/04/11 14:50:20;;;;;;;7.97;7.78;;;;;;;;;;5026804;28;20049;-56
2021/04/11 14:52:53;;;;;;;7.38;6.93;;;;;;;;;;5027286;28;20037;-55
2021/04/11 14:55:27;;;;;;;11.77;11.05;;;;;;;;;;5029886;28;20436;-55
2021/04/11 14:57:55;;;;;;;6.68;6.57;;;;;;;;;;5024911;28;20033;-56